Alpena, Arkansas
Current Conditions -  °F | °C
As of 11:53 AM on Thursday 30 Oct 2014 (Local Time) from KHRO Reporting Station
Light Rain Light Rain  
Wind Chill: 18°   Ceiling: 9000
Heat Index: 18°   Visibility: 10mi
Dew Point:   Wind: 7mph
Humidity: 52%   Direction: 120°ESE
Pressure: 30.1"   Gusts: NA
Location:  36.29°N, 93.29°W
Report Text: KHRO 301653Z AUTO 12006KT 10SM -RA FEW075 BKN090 OVC110 18/08 A3010 RMK AO2 RAB43 SLP189 P0000 T01780078
Loading
Personal Weather Stations






























Interactive Weather Map
Tropical Storm Tracking
New forecast layout! Learn more

10-Day Weather Forecast

Advertisements
Track Severe Weather on mobile